地図

経路データ

SID SEASON NUMBER BASIN SUBBASIN NAME ISO_TIME NATURE LAT LON WMO_WIND WMO_PRES WMO_AGENCY TRACK_TYPE DIST2LAND LANDFALL IFLAG USA_AGENCY USA_ATCF_ID USA_LAT USA_LON USA_RECORD USA_STATUS USA_WIND USA_PRES USA_SSHS USA_R34_NE USA_R34_SE USA_R34_SW USA_R34_NW USA_R50_NE USA_R50_SE USA_R50_SW USA_R50_NW USA_R64_NE USA_R64_SE USA_R64_SW USA_R64_NW USA_POCI USA_ROCI USA_RMW USA_EYE TOKYO_LAT TOKYO_LON TOKYO_GRADE TOKYO_WIND TOKYO_PRES TOKYO_R50_DIR TOKYO_R50_LONG TOKYO_R50_SHORT TOKYO_R30_DIR TOKYO_R30_LONG TOKYO_R30_SHORT TOKYO_LAND CMA_LAT CMA_LON CMA_CAT CMA_WIND CMA_PRES HKO_LAT HKO_LON HKO_CAT HKO_WIND HKO_PRES NEWDELHI_LAT NEWDELHI_LON NEWDELHI_GRADE NEWDELHI_WIND NEWDELHI_PRES NEWDELHI_CI NEWDELHI_DP NEWDELHI_POCI REUNION_LAT REUNION_LON REUNION_TYPE REUNION_WIND REUNION_PRES REUNION_TNUM REUNION_CI REUNION_RMW REUNION_R34_NE REUNION_R34_SE REUNION_R34_SW REUNION_R34_NW REUNION_R50_NE REUNION_R50_SE REUNION_R50_SW REUNION_R50_NW REUNION_R64_NE REUNION_R64_SE REUNION_R64_SW REUNION_R64_NW BOM_LAT BOM_LON BOM_TYPE BOM_WIND BOM_PRES BOM_TNUM BOM_CI BOM_RMW BOM_R34_NE BOM_R34_SE BOM_R34_SW BOM_R34_NW BOM_R50_NE BOM_R50_SE BOM_R50_SW BOM_R50_NW BOM_R64_NE BOM_R64_SE BOM_R64_SW BOM_R64_NW BOM_ROCI BOM_POCI BOM_EYE BOM_POS_METHOD BOM_PRES_METHOD NADI_LAT NADI_LON NADI_CAT NADI_WIND NADI_PRES WELLINGTON_LAT WELLINGTON_LON WELLINGTON_WIND WELLINGTON_PRES DS824_LAT DS824_LON DS824_STAGE DS824_WIND DS824_PRES TD9636_LAT TD9636_LON TD9636_STAGE TD9636_WIND TD9636_PRES TD9635_LAT TD9635_LON TD9635_WIND TD9635_PRES TD9635_ROCI NEUMANN_LAT NEUMANN_LON NEUMANN_CLASS NEUMANN_WIND NEUMANN_PRES MLC_LAT MLC_LON MLC_CLASS MLC_WIND MLC_PRES USA_GUST BOM_GUST BOM_GUST_PER REUNION_GUST REUNION_GUST_PER USA_SEAHGT USA_SEARAD_NE USA_SEARAD_SE USA_SEARAD_SW USA_SEARAD_NW STORM_SPEED STORM_DIR
1883335S16061 1884 34 SI MM NOT_NAMED 1883-12-01 06:00:00 NR -15.9000 60.9000 reunion main 579 563 _____O________ -1 -15.9000 60.9000 99 9.90000 3 233
1883335S16061 1884 34 SI MM NOT_NAMED 1883-12-01 09:00:00 NR -15.9945 60.7707 main 563 542 _____P________ -1 -15.9945 60.7707 99 3 233
1883335S16061 1884 34 SI MM NOT_NAMED 1883-12-01 12:00:00 NR -16.0918 60.6383 main 542 527 _____P________ -1 -16.0918 60.6383 99 3 232
1883335S16061 1884 34 SI MM NOT_NAMED 1883-12-01 15:00:00 NR -16.1950 60.4995 main 527 511 _____P________ -1 -16.1950 60.4995 99 4 232
1883335S16061 1884 34 SI MM NOT_NAMED 1883-12-01 18:00:00 NR -16.3069 60.3512 main 511 490 _____P________ -1 -16.3069 60.3512 99 4 231
1883335S16061 1884 34 SI MM NOT_NAMED 1883-12-01 21:00:00 NR -16.4304 60.1903 main 490 460 _____P________ -1 -16.4304 60.1903 99 4 231
1883335S16061 1884 34 SI MM NOT_NAMED 1883-12-02 00:00:00 NR -16.5685 60.0136 main 460 440 _____P________ -1 -16.5685 60.0136 99 5 230
1883335S16061 1884 34 SI MM NOT_NAMED 1883-12-02 03:00:00 NR -16.7241 59.8179 main 440 410 _____P________ -1 -16.7241 59.8179 99 5 230
1883335S16061 1884 34 SI MM NOT_NAMED 1883-12-02 06:00:00 NR -16.9000 59.6000 reunion main 410 380 _____O________ -1 -16.9000 59.6000 99 9.90000 6 230
1883335S16061 1884 34 SI MM NOT_NAMED 1883-12-02 09:00:00 NR -17.0980 59.3581 main 380 346 _____P________ -1 -17.0980 59.3581 99 6 229
1883335S16061 1884 34 SI MM NOT_NAMED 1883-12-02 12:00:00 NR -17.3152 59.0972 main 346 313 _____P________ -1 -17.3152 59.0972 99 7 229
1883335S16061 1884 34 SI MM NOT_NAMED 1883-12-02 15:00:00 NR -17.5476 58.8238 main 313 274 _____P________ -1 -17.5476 58.8238 99 7 228
1883335S16061 1884 34 SI MM NOT_NAMED 1883-12-02 18:00:00 NR -17.7913 58.5443 main 270 243 _____P________ -1 -17.7913 58.5443 99 7 227
1883335S16061 1884 34 SI MM NOT_NAMED 1883-12-02 21:00:00 NR -18.0422 58.2655 main 243 203 _____P________ -1 -18.0422 58.2655 99 7 226
1883335S16061 1884 34 SI MM NOT_NAMED 1883-12-03 00:00:00 NR -18.2965 57.9940 main 203 179 _____P________ -1 -18.2965 57.9940 99 7 225
1883335S16061 1884 34 SI MM NOT_NAMED 1883-12-03 03:00:00 NR -18.5504 57.7366 main 167 145 _____P________ -1 -18.5504 57.7366 99 7 223
1883335S16061 1884 34 SI MM NOT_NAMED 1883-12-03 06:00:00 NR -18.8000 57.5000 reunion main 145 124 _____O________ -1 -18.8000 57.5000 99 9.90000 6 224
1883335S16061 1884 34 SI MM NOT_NAMED 1883-12-03 09:00:00 NR -19.0103 57.2681 main 124 109 _____P________ -1 -19.0103 57.2681 99 6 226
1883335S16061 1884 34 SI MM NOT_NAMED 1883-12-03 12:00:00 NR -19.2162 57.0505 main 109 100 _____P________ -1 -19.2162 57.0505 99 6 224
1883335S16061 1884 34 SI MM NOT_NAMED 1883-12-03 15:00:00 NR -19.4220 56.8517 main 100 99 _____P________ -1 -19.4220 56.8517 99 5 220
1883335S16061 1884 34 SI MM NOT_NAMED 1883-12-03 18:00:00 NR -19.6320 56.6763 main 100 94 _____P________ -1 -19.6320 56.6763 99 5 215
1883335S16061 1884 34 SI MM NOT_NAMED 1883-12-03 21:00:00 NR -19.8506 56.5289 main 104 99 _____P________ -1 -19.8506 56.5289 99 5 209
1883335S16061 1884 34 SI MM NOT_NAMED 1883-12-04 00:00:00 NR -20.0819 56.4140 main 103 96 _____P________ -1 -20.0819 56.4140 99 5 201
1883335S16061 1884 34 SI MM NOT_NAMED 1883-12-04 03:00:00 NR -20.3302 56.3361 main 100 76 _____P________ -1 -20.3302 56.3361 99 5 192
1883335S16061 1884 34 SI MM NOT_NAMED 1883-12-04 06:00:00 NR -20.6000 56.3000 reunion main 76 56 _____O________ -1 -20.6000 56.3000 99 9.90000 6 184
1883335S16061 1884 34 SI MM NOT_NAMED 1883-12-04 09:00:00 NR -20.9300 56.3003 main 56 51 _____P________ -1 -20.9300 56.3003 99 7 177
1883335S16061 1884 34 SI MM NOT_NAMED 1883-12-04 12:00:00 NR -21.2845 56.3434 main 51 51 _____P________ -1 -21.2845 56.3434 99 7 171
1883335S16061 1884 34 SI MM NOT_NAMED 1883-12-04 15:00:00 NR -21.6541 56.4241 main 76 76 _____P________ -1 -21.6541 56.4241 99 8 166
1883335S16061 1884 34 SI MM NOT_NAMED 1883-12-04 18:00:00 NR -22.0295 56.5369 main 106 106 _____P________ -1 -22.0295 56.5369 99 8 163
1883335S16061 1884 34 SI MM NOT_NAMED 1883-12-04 21:00:00 NR -22.4012 56.6765 main 154 154 _____P________ -1 -22.4012 56.6765 99 8 159
1883335S16061 1884 34 SI MM NOT_NAMED 1883-12-05 00:00:00 NR -22.7597 56.8373 main 196 196 _____P________ -1 -22.7597 56.8373 99 8 156
1883335S16061 1884 34 SI MM NOT_NAMED 1883-12-05 03:00:00 NR -23.0958 57.0137 main 236 236 _____P________ -1 -23.0958 57.0137 99 7 152
1883335S16061 1884 34 SI MM NOT_NAMED 1883-12-05 06:00:00 NR -23.4000 57.2000 reunion main 275 275 _____O________ -1 -23.4000 57.2000 99 9.90000 6 150
1883335S16061 1884 34 SI MM NOT_NAMED 1883-12-05 09:00:00 NR -23.6477 57.3659 main 305 305 _____P________ -1 -23.6477 57.3659 99 6 146
1883335S16061 1884 34 SI MM NOT_NAMED 1883-12-05 12:00:00 NR -23.8669 57.5462 main 338 338 _____P________ -1 -23.8669 57.5462 99 5 141
1883335S16061 1884 34 SI MM NOT_NAMED 1883-12-05 15:00:00 NR -24.0613 57.7386 main 368 368 _____P________ -1 -24.0613 57.7386 99 5 136
1883335S16061 1884 34 SI MM NOT_NAMED 1883-12-05 18:00:00 NR -24.2350 57.9408 main 389 389 _____P________ -1 -24.2350 57.9408 99 5 131
1883335S16061 1884 34 SI MM NOT_NAMED 1883-12-05 21:00:00 NR -24.3917 58.1503 main 424 424 _____P________ -1 -24.3917 58.1503 99 5 128
1883335S16061 1884 34 SI MM NOT_NAMED 1883-12-06 00:00:00 NR -24.5356 58.3650 main 445 445 _____P________ -1 -24.5356 58.3650 99 5 125
1883335S16061 1884 34 SI MM NOT_NAMED 1883-12-06 03:00:00 NR -24.6703 58.5823 main 475 475 _____P________ -1 -24.6703 58.5823 99 5 124
1883335S16061 1884 34 SI MM NOT_NAMED 1883-12-06 06:00:00 NR -24.8000 58.8000 reunion main 493 493 _____O________ -1 -24.8000 58.8000 99 9.90000 5 126
1883335S16061 1884 34 SI MM NOT_NAMED 1883-12-06 09:00:00 NR -24.9492 59.0120 main 509 509 _____P________ -1 -24.9492 59.0120 99 5 127
1883335S16061 1884 34 SI MM NOT_NAMED 1883-12-06 12:00:00 NR -25.0908 59.2264 main 536 536 _____P________ -1 -25.0908 59.2264 99 5 125
1883335S16061 1884 34 SI MM NOT_NAMED 1883-12-06 15:00:00 NR -25.2250 59.4421 main 553 553 _____P________ -1 -25.2250 59.4421 99 5 124
1883335S16061 1884 34 SI MM NOT_NAMED 1883-12-06 18:00:00 NR -25.3524 59.6580 main 584 584 _____P________ -1 -25.3524 59.6580 99 5 123
1883335S16061 1884 34 SI MM NOT_NAMED 1883-12-06 21:00:00 NR -25.4731 59.8729 main 602 602 _____P________ -1 -25.4731 59.8729 99 5 121
1883335S16061 1884 34 SI MM NOT_NAMED 1883-12-07 00:00:00 NR -25.5877 60.0856 main 620 620 _____P________ -1 -25.5877 60.0856 99 4 120
1883335S16061 1884 34 SI MM NOT_NAMED 1883-12-07 03:00:00 NR -25.6965 60.2951 main 639 639 _____P________ -1 -25.6965 60.2951 99 4 120
1883335S16061 1884 34 SI MM NOT_NAMED 1883-12-07 06:00:00 NR -25.8000 60.5000 reunion main 657 657 _____O________ -1 -25.8000 60.5000 99 9.90000 4 119
1883335S16061 1884 34 SI MM NOT_NAMED 1883-12-07 09:00:00 NR -25.8985 60.6996 main 676 676 _____P________ -1 -25.8985 60.6996 99 4 119
1883335S16061 1884 34 SI MM NOT_NAMED 1883-12-07 12:00:00 NR -25.9927 60.8943 main 696 696 _____P________ -1 -25.9927 60.8943 99 4 118
1883335S16061 1884 34 SI MM NOT_NAMED 1883-12-07 15:00:00 NR -26.0832 61.0848 main 715 715 _____P________ -1 -26.0832 61.0848 99 4 118
1883335S16061 1884 34 SI MM NOT_NAMED 1883-12-07 18:00:00 NR -26.1705 61.2718 main 735 735 _____P________ -1 -26.1705 61.2718 99 4 117
1883335S16061 1884 34 SI MM NOT_NAMED 1883-12-07 21:00:00 NR -26.2552 61.4561 main 755 755 _____P________ -1 -26.2552 61.4561 99 4 117
1883335S16061 1884 34 SI MM NOT_NAMED 1883-12-08 00:00:00 NR -26.3380 61.6384 main 760 760 _____P________ -1 -26.3380 61.6384 99 4 117
1883335S16061 1884 34 SI MM NOT_NAMED 1883-12-08 03:00:00 NR -26.4194 61.8195 main 780 780 _____P________ -1 -26.4194 61.8195 99 4 117
1883335S16061 1884 34 SI MM NOT_NAMED 1883-12-08 06:00:00 NR -26.5000 62.0000 reunion main 800 _____O________ -1 -26.5000 62.0000 99 9.90000 4 116

IBTrACS Databaseについて

本データベースは、米国NOAAが公開する1842年以降の世界の熱帯低気圧のベストトラックデータアーカイブInternational Best Track Archive for Climate Stewardship (IBTrACS)を、ウェブで閲覧しやすい形式に変換したものです。

最終更新日:2021-10-25